FAPE

Port Elizabeth Airport

Port Elizabeth, South Africa
METAR FAPE 192000Z 27009KT CAVOK 13/06 Q1022 NOSIG
Observed Flight Rules
Jun-19 @ 20:00 UTC (13 minutes ago) Visual Flight Rules
Wind Visibility Clouds
270° at 9 knots 10,000+ meters
  • Clear skies
Temperatures Readings
Current 13°C / 55°F
Dewpoint 6°C / 43°F
Humidity 63%
Altimeter 30.18" Hg
Pressure 1022 hPa
Elevation 60
METAR FAPE 192000Z 27009KT CAVOK 13/06 Q1022 NOSIG
Observed Flight Rules
Jun-19 @ 20:00 UTC
(13 minutes ago)
VFR
Wind Visibility
270° at 9 knots 10,000+ meters
Clouds
  • Clear skies
Temperature Dewpoint
13°C / 55°F 6°C / 43°F
Humidity Altimeter Pressure
63% 30.18" Hg 1022 hPa